Time,TemperatureF,DewpointF,PressureIn,WindDirection,WindDirectionDegrees,WindSpeedMPH,WindSpeedGustMPH,Humidity,HourlyPrecipIn,Conditions,Clouds,dailyrainin,SoftwareType,DateUTC
2013-09-02 00:00:00,73.1,73.1,29.89,SE,139,0.0,0.0,100,0.00,,-RA,0.00,VWS V14.00,2013-09-02 04:00:00,
2013-09-02 00:01:00,73.0,73.0,29.89,SE,139,0.0,0.0,100,0.00,,-RA,0.00,VWS V14.00,2013-09-02 04:01:00,
2013-09-02 00:02:00,73.1,73.1,29.89,SE,139,0.0,0.0,100,0.00,,-RA,0.00,VWS V14.00,2013-09-02 04:02:00,
2013-09-02 00:03:00,75.1,75.1,29.87,ESE,104,0.0,0.0,100,0.00,,SCT300,0.00,VWS V14.00,2013-09-02 04:03:00,
2013-09-02 00:04:00,73.1,73.1,29.89,SE,139,0.0,0.0,100,0.00,,-RA,0.00,VWS V14.00,2013-09-02 04:04:00,
2013-09-02 00:05:00,75.1,75.1,29.87,ESE,104,0.0,0.0,100,0.00,,SCT300,0.00,VWS V14.00,2013-09-02 04:05:00,
2013-09-02 00:06:00,75.0,75.0,29.87,ESE,104,0.0,0.0,100,0.00,,SCT300,0.00,VWS V14.00,2013-09-02 04:06:00,
2013-09-02 00:07:00,75.0,75.0,29.87,ESE,104,0.0,0.0,100,0.00,,SCT300,0.00,VWS V14.00,2013-09-02 04:07:00,
2013-09-02 00:08:00,75.0,75.0,29.87,ESE,104,0.0,0.0,100,0.00,,SCT300,0.00,VWS V14.00,2013-09-02 04:08:00,
2013-09-02 00:09:00,73.0,73.0,29.89,SE,139,0.0,0.0,100,0.00,,-RA,0.00,VWS V14.00,2013-09-02 04:09:00,
2013-09-02 00:10:00,75.1,75.1,29.87,ESE,104,0.0,0.0,100,0.00,,SCT300,0.00,VWS V14.00,2013-09-02 04:10:00,
2013-09-02 00:11:00,75.1,75.1,29.87,ESE,104,0.0,0.0,100,0.00,,SCT300,0.00,VWS V14.00,2013-09-02 04:11:00,
2013-09-02 00:12:00,75.0,75.0,29.87,ESE,104,0.0,0.0,100,0.00,,SCT300,0.00,VWS V14.00,2013-09-02 04:12:00,
2013-09-02 00:13:00,75.0,75.0,29.87,ESE,104,0.0,0.0,100,0.00,,SCT300,0.00,VWS V14.00,2013-09-02 04:13:00,
2013-09-02 00:14:00,73.2,73.2,29.89,SE,139,0.0,0.0,100,0.00,,-RA,0.00,VWS V14.00,2013-09-02 04:14:00,
2013-09-02 00:15:00,75.0,75.0,29.87,ESE,104,0.0,0.0,100,0.00,,SCT300,0.00,VWS V14.00,2013-09-02 04:15:00,
2013-09-02 00:16:00,75.1,75.1,29.87,ESE,104,0.0,0.0,100,0.00,,SCT300,0.00,VWS V14.00,2013-09-02 04:16:00,
2013-09-02 00:17:00,75.0,75.0,29.87,ESE,104,0.0,0.0,100,0.00,,SCT300,0.00,VWS V14.00,2013-09-02 04:17:00,
2013-09-02 00:18:00,74.9,74.9,29.87,ESE,104,0.0,0.0,100,0.00,,SCT300,0.00,VWS V14.00,2013-09-02 04:18:00,
2013-09-02 00:19:00,73.0,73.0,29.89,SE,139,0.0,0.0,100,0.00,,-RA,0.00,VWS V14.00,2013-09-02 04:19:00,
2013-09-02 00:20:00,74.9,74.9,29.87,ESE,104,0.0,0.0,100,0.00,,SCT300,0.00,VWS V14.00,2013-09-02 04:20:00,
2013-09-02 00:21:00,75.0,75.0,29.87,ESE,104,0.0,0.0,100,0.00,,SCT300,0.00,VWS V14.00,2013-09-02 04:21:00,
2013-09-02 00:22:00,75.0,75.0,29.87,ESE,104,0.0,0.0,100,0.00,,SCT300,0.00,VWS V14.00,2013-09-02 04:22:00,
2013-09-02 00:23:00,73.1,73.1,29.89,SE,139,0.0,0.0,100,0.00,,-RA,0.00,VWS V14.00,2013-09-02 04:23:00,
2013-09-02 00:28:00,73.1,73.1,29.89,SE,139,0.0,0.0,100,0.00,,-RA,0.00,VWS V14.00,2013-09-02 04:28:00,
2013-09-02 00:33:00,73.1,73.1,29.89,SE,139,0.0,0.0,100,0.00,,-RA,0.00,VWS V14.00,2013-09-02 04:33:00,
2013-09-02 00:38:00,73.1,73.1,29.89,SE,139,0.0,0.0,100,0.00,,-RA,0.00,VWS V14.00,2013-09-02 04:38:00,
2013-09-02 00:43:00,73.1,73.1,29.89,SE,139,0.0,0.0,100,0.00,,-RA,0.00,VWS V14.00,2013-09-02 04:43:00,
2013-09-02 00:48:00,73.0,73.0,29.89,SE,139,0.0,0.0,100,0.00,,-RA,0.00,VWS V14.00,2013-09-02 04:48:00,
2013-09-02 00:53:00,73.1,73.1,29.89,SE,139,0.0,0.0,100,0.00,,-RA,0.00,VWS V14.00,2013-09-02 04:53:00,
2013-09-02 00:58:00,73.1,73.1,29.89,SE,139,0.0,0.0,100,0.00,,-RA,0.00,VWS V14.00,2013-09-02 04:58:00,
2013-09-02 01:03:00,73.1,73.1,29.89,SE,139,0.0,0.0,100,0.00,,OVC150,0.00,VWS V14.00,2013-09-02 05:03:00,
2013-09-02 01:08:00,73.0,73.0,29.89,SE,139,0.0,0.0,100,0.00,,OVC150,0.00,VWS V14.00,2013-09-02 05:08:00,
2013-09-02 01:13:00,73.1,73.1,29.88,SE,139,0.0,0.0,100,0.00,,OVC150,0.00,VWS V14.00,2013-09-02 05:13:00,
2013-09-02 01:18:00,73.1,73.1,29.89,SE,139,0.0,0.0,100,0.00,,OVC150,0.00,VWS V14.00,2013-09-02 05:18:00,
2013-09-02 01:24:00,73.1,73.1,29.88,SE,139,0.0,0.0,100,0.00,,OVC150,0.00,VWS V14.00,2013-09-02 05:24:00,
2013-09-02 01:29:00,73.1,73.1,29.88,SE,139,0.0,0.0,100,0.00,,OVC150,0.00,VWS V14.00,2013-09-02 05:29:00,
2013-09-02 01:34:00,73.1,73.1,29.88,SE,139,0.0,0.0,100,0.00,,OVC150,0.00,VWS V14.00,2013-09-02 05:34:00,
2013-09-02 01:39:00,72.9,72.9,29.88,SE,139,0.0,0.0,100,0.00,,OVC150,0.00,VWS V14.00,2013-09-02 05:39:00,
2013-09-02 01:44:00,72.8,72.8,29.88,SE,139,0.0,0.0,100,0.00,,OVC150,0.00,VWS V14.00,2013-09-02 05:44:00,
2013-09-02 01:49:00,72.9,72.9,29.88,SE,139,0.0,0.0,100,0.00,,OVC150,0.00,VWS V14.00,2013-09-02 05:49:00,
2013-09-02 01:54:00,73.0,73.0,29.88,SE,139,0.0,0.0,100,0.00,,OVC150,0.00,VWS V14.00,2013-09-02 05:54:00,
2013-09-02 01:59:00,72.8,72.8,29.88,SE,139,0.0,0.0,100,0.00,,OVC150,0.00,VWS V14.00,2013-09-02 05:59:00,
2013-09-02 02:04:00,72.8,72.8,29.88,SE,139,0.0,0.0,100,0.00,,OVC150,0.00,VWS V14.00,2013-09-02 06:04:00,
2013-09-02 02:09:00,72.8,72.8,29.88,SE,139,0.0,0.0,100,0.00,,OVC150,0.00,VWS V14.00,2013-09-02 06:09:00,
2013-09-02 02:14:00,72.8,72.8,29.88,SE,139,0.0,0.0,100,0.00,,OVC150,0.00,VWS V14.00,2013-09-02 06:14:00,
2013-09-02 02:19:00,72.8,72.8,29.88,SE,139,0.0,0.0,100,0.00,,OVC150,0.00,VWS V14.00,2013-09-02 06:19:00,
2013-09-02 02:24:00,72.8,72.8,29.88,SE,139,0.0,0.0,100,0.00,,OVC150,0.00,VWS V14.00,2013-09-02 06:24:00,
2013-09-02 02:29:00,72.9,72.9,29.88,SE,139,0.0,0.0,100,0.00,,OVC150,0.00,VWS V14.00,2013-09-02 06:29:00,
2013-09-02 02:34:00,72.9,72.9,29.88,SE,139,0.0,0.0,100,0.00,,OVC150,0.00,VWS V14.00,2013-09-02 06:34:00,
2013-09-02 02:39:00,72.8,72.8,29.88,SE,139,0.0,0.0,100,0.00,,OVC150,0.00,VWS V14.00,2013-09-02 06:39:00,
2013-09-02 02:44:00,72.9,72.9,29.88,SE,139,0.0,0.0,100,0.00,,OVC150,0.00,VWS V14.00,2013-09-02 06:44:00,
2013-09-02 02:49:00,72.9,72.9,29.87,SE,139,0.0,0.0,100,0.00,,OVC150,0.00,VWS V14.00,2013-09-02 06:49:00,
2013-09-02 02:54:00,72.9,72.9,29.87,SE,139,0.0,0.0,100,0.00,,OVC150,0.00,VWS V14.00,2013-09-02 06:54:00,
2013-09-02 02:59:00,73.0,73.0,29.87,SE,139,0.0,0.0,100,0.00,,OVC150,0.00,VWS V14.00,2013-09-02 06:59:00,
2013-09-02 03:04:00,73.0,73.0,29.87,SE,139,0.0,0.0,100,0.00,,OVC150,0.00,VWS V14.00,2013-09-02 07:04:00,
2013-09-02 03:09:00,72.9,72.9,29.87,SE,139,0.0,0.0,100,0.00,,OVC150,0.00,VWS V14.00,2013-09-02 07:09:00,
2013-09-02 03:15:00,73.0,73.0,29.87,SE,139,0.0,0.0,100,0.00,,OVC150,0.00,VWS V14.00,2013-09-02 07:15:00,
2013-09-02 03:20:00,73.0,73.0,29.87,SE,139,0.0,0.0,100,0.00,,OVC150,0.00,VWS V14.00,2013-09-02 07:20:00,
2013-09-02 03:25:00,73.0,73.0,29.87,SE,139,0.0,0.0,100,0.00,,OVC150,0.00,VWS V14.00,2013-09-02 07:25:00,
2013-09-02 03:30:00,72.9,72.9,29.87,SE,139,0.0,0.0,100,0.00,,OVC150,0.00,VWS V14.00,2013-09-02 07:30:00,
2013-09-02 03:35:00,72.9,72.9,29.87,SE,139,0.0,0.0,100,0.00,,SCT008,0.00,VWS V14.00,2013-09-02 07:35:00,
2013-09-02 03:40:00,72.8,72.8,29.87,East,83,0.0,0.6,100,0.00,,SCT008,0.00,VWS V14.00,2013-09-02 07:40:00,
2013-09-02 03:45:00,72.8,72.8,29.87,SE,141,0.0,3.2,100,0.00,,SCT008,0.00,VWS V14.00,2013-09-02 07:45:00,
2013-09-02 03:50:00,72.6,72.6,29.87,ESE,115,0.0,3.2,100,0.00,,SCT008,0.00,VWS V14.00,2013-09-02 07:50:00,
2013-09-02 03:55:00,72.7,72.7,29.87,ENE,65,0.0,4.9,100,0.00,,SCT008,0.00,VWS V14.00,2013-09-02 07:55:00,
2013-09-02 04:00:00,72.5,72.5,29.87,ENE,65,0.0,4.9,100,0.00,,SCT008,0.00,VWS V14.00,2013-09-02 08:00:00,
2013-09-02 04:05:00,72.5,72.5,29.87,ENE,65,0.0,4.9,100,0.00,,OVC008,0.00,VWS V14.00,2013-09-02 08:05:00,
2013-09-02 04:10:00,72.6,72.6,29.87,ENE,65,0.0,0.0,100,0.00,,OVC008,0.00,VWS V14.00,2013-09-02 08:10:00,
2013-09-02 04:15:00,72.4,72.4,29.87,ENE,65,0.0,0.0,100,0.00,,OVC008,0.00,VWS V14.00,2013-09-02 08:15:00,
2013-09-02 04:20:00,72.4,72.4,29.87,ENE,65,0.0,0.0,100,0.00,,OVC008,0.00,VWS V14.00,2013-09-02 08:20:00,
2013-09-02 04:25:00,72.5,72.5,29.87,ENE,65,0.0,0.0,100,0.00,,OVC008,0.00,VWS V14.00,2013-09-02 08:25:00,
2013-09-02 04:30:00,72.6,72.6,29.87,ENE,65,0.0,0.0,100,0.00,,OVC008,0.00,VWS V14.00,2013-09-02 08:30:00,
2013-09-02 04:35:00,72.4,72.4,29.87,ENE,65,0.0,0.0,100,0.00,,OVC008,0.00,VWS V14.00,2013-09-02 08:35:00,
2013-09-02 04:40:00,72.4,72.4,29.87,ENE,65,0.0,0.0,100,0.00,,OVC008,0.00,VWS V14.00,2013-09-02 08:40:00,
2013-09-02 04:46:00,72.4,72.4,29.87,ENE,65,0.0,0.0,100,0.00,,OVC008,0.00,VWS V14.00,2013-09-02 08:46:00,
2013-09-02 04:51:00,72.4,72.4,29.87,ENE,65,0.0,0.0,100,0.00,,OVC008,0.00,VWS V14.00,2013-09-02 08:51:00,
2013-09-02 04:56:00,72.4,72.4,29.87,ENE,65,0.0,0.0,100,0.00,,OVC008,0.00,VWS V14.00,2013-09-02 08:56:00,
2013-09-02 05:01:00,72.5,72.5,29.87,ENE,65,0.0,0.0,100,0.00,,OVC008,0.00,VWS V14.00,2013-09-02 09:01:00,
2013-09-02 05:06:00,72.5,72.5,29.87,ENE,65,0.0,0.0,100,0.00,,OVC008,0.00,VWS V14.00,2013-09-02 09:06:00,
2013-09-02 05:11:00,72.5,72.5,29.87,ENE,65,0.0,0.0,100,0.00,,OVC008,0.00,VWS V14.00,2013-09-02 09:11:00,
2013-09-02 05:16:00,72.5,72.5,29.87,ENE,65,0.0,0.0,100,0.00,,OVC008,0.00,VWS V14.00,2013-09-02 09:16:00,
2013-09-02 05:21:00,72.5,72.5,29.87,ENE,65,0.0,0.0,100,0.00,,OVC008,0.00,VWS V14.00,2013-09-02 09:21:00,
2013-09-02 05:26:00,72.5,72.5,29.87,ENE,65,0.0,0.0,100,0.00,,OVC008,0.00,VWS V14.00,2013-09-02 09:26:00,
2013-09-02 05:31:00,72.6,72.6,29.87,SSE,155,0.0,1.0,100,0.00,,OVC008,0.00,VWS V14.00,2013-09-02 09:31:00,
2013-09-02 05:36:00,72.3,72.3,29.87,SSE,155,0.0,1.0,100,0.00,,OVC008,0.00,VWS V14.00,2013-09-02 09:36:00,
2013-09-02 05:41:00,72.4,72.4,29.87,SSE,155,0.0,0.0,100,0.00,,OVC008,0.00,VWS V14.00,2013-09-02 09:41:00,
2013-09-02 05:46:00,72.4,72.4,29.87,SSE,155,0.0,0.0,100,0.00,,OVC008,0.00,VWS V14.00,2013-09-02 09:46:00,
2013-09-02 05:51:00,72.4,72.4,29.87,SSE,155,0.0,0.0,100,0.00,,OVC008,0.00,VWS V14.00,2013-09-02 09:51:00,
2013-09-02 05:56:00,72.5,72.5,29.87,SSE,155,0.0,0.0,100,0.00,,OVC008,0.00,VWS V14.00,2013-09-02 09:56:00,
2013-09-02 06:01:00,72.4,72.4,29.87,SSE,155,0.0,0.0,100,0.00,,OVC010,0.00,VWS V14.00,2013-09-02 10:01:00,
2013-09-02 06:06:00,72.4,72.4,29.87,SSE,155,0.0,0.0,100,0.00,,OVC010,0.00,VWS V14.00,2013-09-02 10:06:00,
2013-09-02 06:11:00,72.4,72.4,29.87,SSE,155,0.0,0.0,100,0.00,,OVC010,0.00,VWS V14.00,2013-09-02 10:11:00,
2013-09-02 06:16:00,72.4,72.4,29.87,SSE,155,0.0,0.0,100,0.00,,OVC010,0.00,VWS V14.00,2013-09-02 10:16:00,
2013-09-02 06:21:00,72.3,72.3,29.87,SSE,155,0.0,0.0,100,0.00,,OVC010,0.00,VWS V14.00,2013-09-02 10:21:00,
2013-09-02 06:26:00,72.4,72.4,29.88,SSE,155,0.0,0.0,100,0.00,,OVC010,0.00,VWS V14.00,2013-09-02 10:26:00,
2013-09-02 06:31:00,72.4,72.4,29.88,SSE,155,0.0,0.0,100,0.00,,OVC010,0.00,VWS V14.00,2013-09-02 10:31:00,
2013-09-02 06:37:00,72.4,72.4,29.88,SSE,155,0.0,0.0,100,0.00,,OVC010,0.00,VWS V14.00,2013-09-02 10:37:00,
2013-09-02 06:42:00,72.4,72.4,29.88,SSE,155,0.0,0.0,100,0.00,,OVC010,0.00,VWS V14.00,2013-09-02 10:42:00,
2013-09-02 06:47:00,72.4,72.4,29.88,SSE,155,0.0,0.0,100,0.00,,OVC010,0.00,VWS V14.00,2013-09-02 10:47:00,
2013-09-02 06:52:00,72.4,72.4,29.88,SSE,155,0.0,0.0,100,0.00,,OVC010,0.00,VWS V14.00,2013-09-02 10:52:00,
2013-09-02 06:57:00,72.5,72.5,29.88,SSE,155,0.0,0.9,100,0.00,,OVC010,0.00,VWS V14.00,2013-09-02 10:57:00,
2013-09-02 07:02:00,72.5,72.5,29.88,SSE,155,0.0,0.9,100,0.00,,OVC007,0.00,VWS V14.00,2013-09-02 11:02:00,
2013-09-02 07:07:00,72.6,72.6,29.88,SSE,155,0.0,0.0,100,0.00,,OVC007,0.00,VWS V14.00,2013-09-02 11:07:00,
2013-09-02 07:12:00,72.5,72.5,29.88,SSE,155,0.0,0.0,100,0.00,,OVC007,0.00,VWS V14.00,2013-09-02 11:12:00,
2013-09-02 07:17:00,72.6,72.6,29.88,SSE,155,0.0,0.0,100,0.00,,OVC007,0.00,VWS V14.00,2013-09-02 11:17:00,
2013-09-02 07:22:00,72.5,72.5,29.88,SSE,155,0.0,0.0,100,0.00,,OVC007,0.00,VWS V14.00,2013-09-02 11:22:00,
2013-09-02 07:27:00,72.5,72.5,29.89,SSE,155,0.0,0.0,100,0.00,,OVC007,0.00,VWS V14.00,2013-09-02 11:27:00,
2013-09-02 07:32:00,72.6,72.6,29.89,SSE,155,0.0,0.0,100,0.00,,OVC007,0.00,VWS V14.00,2013-09-02 11:32:00,
2013-09-02 07:37:00,72.6,72.6,29.89,SSE,155,0.0,0.0,100,0.00,,OVC007,0.00,VWS V14.00,2013-09-02 11:37:00,
2013-09-02 07:42:00,72.7,72.7,29.89,SSE,155,0.0,0.0,100,0.00,,OVC007,0.00,VWS V14.00,2013-09-02 11:42:00,
2013-09-02 07:47:00,72.7,72.7,29.89,SSE,155,0.0,0.0,100,0.00,,OVC007,0.00,VWS V14.00,2013-09-02 11:47:00,
2013-09-02 07:52:00,72.7,72.7,29.89,SSE,155,0.0,0.0,100,0.00,,OVC007,0.00,VWS V14.00,2013-09-02 11:52:00,
2013-09-02 07:57:00,72.7,72.7,29.89,SSE,155,0.0,0.0,100,0.00,,OVC007,0.00,VWS V14.00,2013-09-02 11:57:00,
2013-09-02 08:02:00,72.7,72.7,29.89,SSE,155,0.0,0.0,100,0.00,,OVC009,0.00,VWS V14.00,2013-09-02 12:02:00,
2013-09-02 08:07:00,72.7,72.7,29.89,SSE,155,0.0,0.0,100,0.00,,OVC009,0.00,VWS V14.00,2013-09-02 12:07:00,
2013-09-02 08:13:00,72.8,72.8,29.89,SSE,155,0.0,0.0,100,0.00,,OVC009,0.00,VWS V14.00,2013-09-02 12:13:00,
2013-09-02 08:18:00,72.9,72.9,29.89,SSE,155,0.0,0.0,100,0.00,,OVC009,0.00,VWS V14.00,2013-09-02 12:18:00,
2013-09-02 08:23:00,73.0,73.0,29.89,SSE,155,0.0,0.0,100,0.00,,OVC009,0.00,VWS V14.00,2013-09-02 12:23:00,
2013-09-02 08:28:00,73.1,73.1,29.89,SSE,155,0.0,0.0,100,0.00,,OVC009,0.00,VWS V14.00,2013-09-02 12:28:00,
2013-09-02 08:33:00,73.2,73.2,29.89,SSE,155,0.0,0.0,100,0.00,,OVC009,0.00,VWS V14.00,2013-09-02 12:33:00,
2013-09-02 08:38:00,73.2,73.2,29.89,SSE,155,0.0,0.0,100,0.00,,OVC009,0.00,VWS V14.00,2013-09-02 12:38:00,
2013-09-02 08:43:00,73.3,73.3,29.89,SSE,155,0.0,0.0,100,0.00,,OVC009,0.00,VWS V14.00,2013-09-02 12:43:00,
2013-09-02 08:48:00,73.2,73.2,29.89,SSE,155,0.0,0.0,100,0.00,,OVC009,0.00,VWS V14.00,2013-09-02 12:48:00,
2013-09-02 08:53:00,73.3,73.3,29.89,SSE,155,0.0,0.0,100,0.00,,OVC009,0.00,VWS V14.00,2013-09-02 12:53:00,
2013-09-02 08:58:00,73.2,73.2,29.89,SSE,155,0.0,0.0,100,0.00,,OVC009,0.00,VWS V14.00,2013-09-02 12:58:00,
2013-09-02 09:03:00,73.3,73.3,29.90,SSE,155,0.0,0.0,100,0.00,,OVC009,0.00,VWS V14.00,2013-09-02 13:03:00,
2013-09-02 09:08:00,73.5,73.5,29.89,SSE,155,0.0,0.0,100,0.00,,OVC009,0.00,VWS V14.00,2013-09-02 13:08:00,
2013-09-02 09:13:00,73.4,73.4,29.90,SSE,155,0.0,0.0,100,0.00,,OVC009,0.00,VWS V14.00,2013-09-02 13:13:00,
2013-09-02 09:18:00,73.4,73.4,29.89,SSE,155,0.0,0.0,100,0.00,,OVC009,0.00,VWS V14.00,2013-09-02 13:18:00,
2013-09-02 09:23:00,73.5,73.5,29.89,SSE,155,0.0,0.0,100,0.00,,OVC009,0.00,VWS V14.00,2013-09-02 13:23:00,
2013-09-02 09:28:00,73.6,73.6,29.90,SSE,155,0.0,0.0,100,0.00,,OVC009,0.00,VWS V14.00,2013-09-02 13:28:00,
2013-09-02 09:33:00,73.8,73.8,29.91,SSE,155,0.0,0.0,100,0.00,,OVC014,0.00,VWS V14.00,2013-09-02 13:33:00,
2013-09-02 09:38:00,73.9,73.9,29.90,SSE,155,0.0,0.0,100,0.00,,OVC014,0.00,VWS V14.00,2013-09-02 13:38:00,
2013-09-02 09:43:00,73.8,73.8,29.91,SSE,155,0.0,0.0,100,0.00,,OVC014,0.00,VWS V14.00,2013-09-02 13:43:00,
2013-09-02 09:49:00,74.0,74.0,29.91,SSE,155,0.0,0.0,100,0.00,,OVC014,0.00,VWS V14.00,2013-09-02 13:49:00,
2013-09-02 09:54:00,74.1,74.1,29.91,SSE,155,0.0,0.0,100,0.00,,OVC014,0.00,VWS V14.00,2013-09-02 13:54:00,
2013-09-02 09:59:00,74.3,74.3,29.91,SSE,155,0.0,0.0,100,0.00,,OVC014,0.00,VWS V14.00,2013-09-02 13:59:00,
2013-09-02 10:04:00,74.5,74.5,29.91,SSE,155,0.0,0.0,100,0.00,,OVC014,0.00,VWS V14.00,2013-09-02 14:04:00,
2013-09-02 10:09:00,74.6,74.6,29.91,SSE,155,0.0,0.0,100,0.00,,OVC014,0.00,VWS V14.00,2013-09-02 14:09:00,
2013-09-02 10:14:00,74.6,74.6,29.91,SSE,155,0.0,0.0,100,0.00,,OVC014,0.00,VWS V14.00,2013-09-02 14:14:00,
2013-09-02 10:19:00,74.8,74.8,29.91,SSE,155,0.0,0.0,100,0.00,,OVC012,0.00,VWS V14.00,2013-09-02 14:19:00,
2013-09-02 10:24:00,75.0,75.0,29.91,SSE,155,0.0,0.0,100,0.00,,OVC012,0.00,VWS V14.00,2013-09-02 14:24:00,
2013-09-02 10:29:00,75.4,75.4,29.90,SSE,155,0.0,0.0,100,0.00,,OVC012,0.00,VWS V14.00,2013-09-02 14:29:00,
2013-09-02 10:34:00,75.5,75.5,29.91,SSE,155,0.0,0.0,100,0.00,,OVC012,0.00,VWS V14.00,2013-09-02 14:34:00,
2013-09-02 10:39:00,75.8,75.8,29.91,SSE,155,0.0,0.0,100,0.00,,OVC012,0.00,VWS V14.00,2013-09-02 14:39:00,
2013-09-02 10:44:00,76.0,74.9,29.91,SSE,155,0.0,0.0,96,0.00,,OVC012,0.00,VWS V14.00,2013-09-02 14:44:00,
2013-09-02 10:49:00,76.2,74.3,29.91,SSE,155,0.0,0.0,94,0.00,,OVC012,0.00,VWS V14.00,2013-09-02 14:49:00,
2013-09-02 10:54:00,76.3,72.8,29.91,SSE,155,0.0,0.0,89,0.00,,OVC012,0.00,VWS V14.00,2013-09-02 14:54:00,
2013-09-02 10:59:00,76.6,72.4,29.92,SSE,155,0.0,0.0,87,0.00,,OVC012,0.00,VWS V14.00,2013-09-02 14:59:00,
2013-09-02 11:04:00,76.7,72.0,29.91,SSE,155,0.0,0.0,85,0.00,,OVC014,0.00,VWS V14.00,2013-09-02 15:04:00,
2013-09-02 11:09:00,77.0,72.1,29.92,SSE,155,0.0,0.0,85,0.00,,OVC014,0.00,VWS V14.00,2013-09-02 15:09:00,
2013-09-02 11:14:00,77.1,71.6,29.92,SSE,155,0.0,0.0,83,0.00,,OVC014,0.00,VWS V14.00,2013-09-02 15:14:00,
2013-09-02 11:19:00,77.3,71.6,29.92,SSE,155,0.0,0.0,83,0.00,,OVC016,0.00,VWS V14.00,2013-09-02 15:19:00,
2013-09-02 11:24:00,77.2,71.2,29.92,SSE,155,0.0,0.0,82,0.00,,OVC016,0.00,VWS V14.00,2013-09-02 15:24:00,
2013-09-02 11:29:00,77.3,70.8,29.91,SSE,155,0.0,0.0,80,0.00,,OVC016,0.00,VWS V14.00,2013-09-02 15:29:00,
2013-09-02 11:35:00,77.8,71.2,29.92,SSE,155,0.0,0.0,80,0.00,,OVC016,0.00,VWS V14.00,2013-09-02 15:35:00,
2013-09-02 11:40:00,77.8,71.2,29.91,SSE,155,0.0,0.0,80,0.00,,OVC016,0.00,VWS V14.00,2013-09-02 15:40:00,
2013-09-02 11:45:00,78.2,71.5,29.92,SSE,155,0.0,0.0,80,0.00,,OVC016,0.00,VWS V14.00,2013-09-02 15:45:00,
2013-09-02 11:50:00,78.5,71.6,29.91,SSE,155,0.0,0.0,79,0.00,,OVC016,0.00,VWS V14.00,2013-09-02 15:50:00,
2013-09-02 11:55:00,78.8,71.2,29.91,NNW,342,1.7,1.7,78,0.00,,OVC016,0.00,VWS V14.00,2013-09-02 15:55:00,
2013-09-02 12:00:00,79.2,71.0,29.91,WNW,285,1.2,3.0,76,0.00,,OVC016,0.00,VWS V14.00,2013-09-02 16:00:00,
2013-09-02 12:05:00,79.5,70.8,29.91,SE,128,0.0,3.0,75,0.00,,BKN300,0.00,VWS V14.00,2013-09-02 16:05:00,
2013-09-02 12:10:00,79.8,70.7,29.91,SSW,197,0.0,1.1,74,0.00,,BKN300,0.00,VWS V14.00,2013-09-02 16:10:00,
2013-09-02 12:15:00,80.0,70.6,29.90,SSW,197,0.0,1.1,73,0.00,,BKN300,0.00,VWS V14.00,2013-09-02 16:15:00,
2013-09-02 12:20:00,80.4,70.4,29.91,SE,139,0.0,5.2,72,0.00,,BKN300,0.00,VWS V14.00,2013-09-02 16:20:00,
2013-09-02 12:25:00,80.3,70.0,29.90,SE,139,0.0,5.2,71,0.00,,BKN300,0.00,VWS V14.00,2013-09-02 16:25:00,
2013-09-02 12:30:00,80.8,69.9,29.90,SE,139,0.0,5.2,70,0.00,,BKN300,0.00,VWS V14.00,2013-09-02 16:30:00,
2013-09-02 12:35:00,81.1,70.1,29.90,SE,139,0.0,5.2,69,0.00,,BKN300,0.00,VWS V14.00,2013-09-02 16:35:00,
2013-09-02 12:40:00,81.7,70.8,29.90,ESE,104,0.7,2.6,70,0.00,,BKN300,0.00,VWS V14.00,2013-09-02 16:40:00,
2013-09-02 12:45:00,82.2,71.2,29.89,ENE,59,0.0,2.8,70,0.00,,BKN300,0.00,VWS V14.00,2013-09-02 16:45:00,
2013-09-02 12:50:00,82.5,70.8,29.90,South,191,0.0,2.8,68,0.00,,BKN300,0.00,VWS V14.00,2013-09-02 16:50:00,
2013-09-02 12:55:00,82.4,69.7,29.90,South,191,0.0,2.8,66,0.00,,BKN300,0.00,VWS V14.00,2013-09-02 16:55:00,
2013-09-02 13:00:00,82.7,70.7,29.89,NNE,21,3.4,3.4,67,0.00,,BKN300,0.00,VWS V14.00,2013-09-02 17:00:00,
2013-09-02 13:05:00,82.9,69.6,29.89,SSW,208,1.1,3.4,64,0.00,,BKN300,0.00,VWS V14.00,2013-09-02 17:05:00,
2013-09-02 13:10:00,83.1,69.9,29.89,South,169,0.0,0.0,64,0.00,,BKN300,0.00,VWS V14.00,2013-09-02 17:10:00,
2013-09-02 13:15:00,83.1,69.3,29.89,West,273,0.0,2.2,63,0.00,,BKN300,0.00,VWS V14.00,2013-09-02 17:15:00,
2013-09-02 13:20:00,83.4,69.5,29.89,West,269,0.0,2.4,63,0.00,,BKN300,0.00,VWS V14.00,2013-09-02 17:20:00,
2013-09-02 13:26:00,83.5,69.2,29.89,East,98,0.0,2.4,62,0.00,,BKN300,0.00,VWS V14.00,2013-09-02 17:26:00,
2013-09-02 13:31:00,84.0,69.3,29.89,SSE,162,4.9,5.5,61,0.00,,BKN300,0.00,VWS V14.00,2013-09-02 17:31:00,
2013-09-02 13:36:00,84.3,69.4,29.89,SSE,158,0.7,5.5,61,0.00,,BKN300,0.00,VWS V14.00,2013-09-02 17:36:00,
2013-09-02 13:41:00,84.2,68.7,29.89,SW,221,1.2,3.9,60,0.00,,BKN300,0.00,VWS V14.00,2013-09-02 17:41:00,
2013-09-02 13:46:00,84.0,68.9,29.89,SW,225,0.0,3.9,60,0.00,,BKN300,0.00,VWS V14.00,2013-09-02 17:46:00,
2013-09-02 13:51:00,84.2,69.2,29.90,ESE,115,0.0,3.9,61,0.00,,BKN300,0.00,VWS V14.00,2013-09-02 17:51:00,
2013-09-02 13:56:00,84.1,69.3,29.89,ESE,115,0.0,3.9,61,0.00,,BKN300,0.00,VWS V14.00,2013-09-02 17:56:00,
2013-09-02 14:01:00,84.4,69.3,29.89,South,181,3.5,6.0,61,0.00,,BKN300,0.00,VWS V14.00,2013-09-02 18:01:00,
2013-09-02 14:06:00,84.5,69.2,29.89,South,169,2.2,6.0,60,0.00,,BKN300,0.00,VWS V14.00,2013-09-02 18:06:00,
2013-09-02 14:11:00,84.6,68.4,29.89,South,170,1.7,5.7,58,0.00,,BKN300,0.00,VWS V14.00,2013-09-02 18:11:00,
2013-09-02 14:16:00,84.5,68.2,29.88,SSW,204,0.0,5.7,58,0.00,,BKN300,0.00,VWS V14.00,2013-09-02 18:16:00,
2013-09-02 14:21:00,84.6,68.6,29.88,SE,129,0.0,5.9,59,0.00,,BKN300,0.00,VWS V14.00,2013-09-02 18:21:00,
2013-09-02 14:26:00,84.9,69.3,29.88,SE,129,0.0,5.9,60,0.00,,BKN300,0.00,VWS V14.00,2013-09-02 18:26:00,
2013-09-02 14:31:00,84.9,68.7,29.88,SE,145,0.9,5.9,58,0.00,,BKN300,0.00,VWS V14.00,2013-09-02 18:31:00,
2013-09-02 14:36:00,85.2,68.3,29.87,South,180,2.2,5.9,57,0.00,,BKN300,0.00,VWS V14.00,2013-09-02 18:36:00,
2013-09-02 14:41:00,85.1,68.6,29.87,SSE,153,1.7,2.4,58,0.00,,BKN300,0.00,VWS V14.00,2013-09-02 18:41:00,
2013-09-02 14:46:00,85.2,68.9,29.87,East,89,1.9,4.1,58,0.00,,BKN300,0.00,VWS V14.00,2013-09-02 18:46:00,
2013-09-02 14:51:00,85.3,68.8,29.87,East,100,1.6,4.9,58,0.00,,BKN300,0.00,VWS V14.00,2013-09-02 18:51:00,
2013-09-02 14:56:00,85.4,68.4,29.87,ENE,77,0.5,4.9,57,0.00,,BKN300,0.00,VWS V14.00,2013-09-02 18:56:00,
2013-09-02 15:01:00,85.2,67.4,29.87,SSE,156,0.0,4.9,55,0.00,,BKN300,0.00,VWS V14.00,2013-09-02 19:01:00,
2013-09-02 15:06:00,84.8,67.8,29.86,SE,128,0.0,0.0,57,0.00,,BKN300,0.00,VWS V14.00,2013-09-02 19:06:00,
2013-09-02 15:11:00,84.7,68.2,29.86,SE,128,0.0,0.0,58,0.00,,BKN300,0.00,VWS V14.00,2013-09-02 19:11:00,
2013-09-02 15:17:00,84.7,69.2,29.86,ESE,107,0.9,2.1,60,0.00,,BKN300,0.00,VWS V14.00,2013-09-02 19:17:00,
2013-09-02 15:22:00,85.0,70.0,29.86,ESE,103,0.0,2.1,61,0.00,,BKN300,0.00,VWS V14.00,2013-09-02 19:22:00,
2013-09-02 15:27:00,85.0,70.0,29.86,ESE,118,0.0,2.1,61,0.00,,BKN300,0.00,VWS V14.00,2013-09-02 19:27:00,
2013-09-02 15:32:00,84.9,70.3,29.86,ESE,118,0.0,2.1,62,0.00,,BKN300,0.00,VWS V14.00,2013-09-02 19:32:00,
2013-09-02 15:37:00,85.2,69.5,29.86,East,83,0.0,0.0,59,0.00,,BKN300,0.00,VWS V14.00,2013-09-02 19:37:00,
2013-09-02 15:42:00,85.1,68.0,29.85,East,79,0.0,0.5,57,0.00,,BKN300,0.00,VWS V14.00,2013-09-02 19:42:00,
2013-09-02 15:47:00,85.3,69.2,29.86,East,79,0.0,0.5,59,0.00,,BKN300,0.00,VWS V14.00,2013-09-02 19:47:00,
2013-09-02 15:52:00,85.3,69.6,29.85,East,79,0.0,0.5,59,0.00,,BKN300,0.00,VWS V14.00,2013-09-02 19:52:00,
2013-09-02 15:57:00,85.3,70.3,29.85,East,79,0.0,0.5,61,0.00,,BKN300,0.00,VWS V14.00,2013-09-02 19:57:00,
2013-09-02 16:02:00,85.4,71.0,29.85,East,79,0.0,0.5,62,0.00,,BKN300,0.00,VWS V14.00,2013-09-02 20:02:00,
2013-09-02 16:07:00,85.6,71.7,29.85,East,79,0.0,0.0,63,0.00,,BKN300,0.00,VWS V14.00,2013-09-02 20:07:00,
2013-09-02 16:12:00,85.5,70.0,29.84,East,79,0.0,0.0,60,0.00,,BKN300,0.00,VWS V14.00,2013-09-02 20:12:00,
2013-09-02 16:17:00,85.6,69.3,29.84,East,101,0.7,3.2,58,0.00,,BKN300,0.00,VWS V14.00,2013-09-02 20:17:00,
2013-09-02 16:22:00,85.9,69.2,29.84,East,101,2.1,4.5,58,0.00,,BKN300,0.00,VWS V14.00,2013-09-02 20:22:00,
2013-09-02 16:27:00,85.9,68.4,29.84,ESE,111,2.9,4.5,56,0.00,,BKN300,0.00,VWS V14.00,2013-09-02 20:27:00,
2013-09-02 16:32:00,86.0,66.5,29.84,East,87,1.8,4.5,52,0.00,,BKN300,0.00,VWS V14.00,2013-09-02 20:32:00,
2013-09-02 16:37:00,86.1,68.1,29.84,SE,138,1.0,1.7,55,0.00,,BKN300,0.00,VWS V14.00,2013-09-02 20:37:00,
2013-09-02 16:42:00,86.0,68.2,29.84,SE,125,0.0,1.7,56,0.00,,BKN300,0.00,VWS V14.00,2013-09-02 20:42:00,
2013-09-02 16:47:00,85.7,68.6,29.84,SE,125,0.0,1.7,57,0.00,,BKN300,0.00,VWS V14.00,2013-09-02 20:47:00,
2013-09-02 16:52:00,85.5,69.3,29.84,SE,125,0.0,1.7,59,0.00,,BKN300,0.00,VWS V14.00,2013-09-02 20:52:00,
2013-09-02 16:57:00,85.6,70.0,29.84,SE,125,0.0,1.7,60,0.00,,BKN300,0.00,VWS V14.00,2013-09-02 20:57:00,
2013-09-02 17:02:00,85.6,69.1,29.84,SE,127,1.3,3.4,58,0.00,,BKN300,0.00,VWS V14.00,2013-09-02 21:02:00,
2013-09-02 17:08:00,85.5,67.9,29.84,ESE,117,1.6,1.6,56,0.00,,BKN300,0.00,VWS V14.00,2013-09-02 21:08:00,
2013-09-02 17:13:00,85.5,67.7,29.84,ENE,59,0.0,2.3,55,0.00,,BKN300,0.00,VWS V14.00,2013-09-02 21:13:00,
2013-09-02 17:18:00,85.5,68.2,29.84,ENE,59,0.0,2.3,56,0.00,,BKN300,0.00,VWS V14.00,2013-09-02 21:18:00,
2013-09-02 17:23:00,85.6,68.5,29.84,ENE,59,0.0,2.3,57,0.00,,BKN300,0.00,VWS V14.00,2013-09-02 21:23:00,
2013-09-02 17:28:00,85.6,67.5,29.84,East,87,0.0,2.3,55,0.00,,BKN300,0.00,VWS V14.00,2013-09-02 21:28:00,
2013-09-02 17:33:00,85.7,67.4,29.84,ENE,76,0.0,2.3,54,0.00,,BKN300,0.00,VWS V14.00,2013-09-02 21:33:00,
2013-09-02 17:38:00,85.7,67.0,29.84,ENE,75,0.0,0.7,54,0.00,,BKN300,0.00,VWS V14.00,2013-09-02 21:38:00,
2013-09-02 17:43:00,85.9,66.7,29.84,ENE,75,0.0,0.7,53,0.00,,BKN300,0.00,VWS V14.00,2013-09-02 21:43:00,
2013-09-02 17:48:00,86.1,67.5,29.84,ENE,75,0.0,0.7,54,0.00,,BKN300,0.00,VWS V14.00,2013-09-02 21:48:00,
2013-09-02 17:53:00,86.1,68.3,29.84,ENE,75,0.0,0.7,55,0.00,,BKN300,0.00,VWS V14.00,2013-09-02 21:53:00,
2013-09-02 17:58:00,86.0,68.0,29.84,East,83,0.4,1.0,55,0.00,,BKN300,0.00,VWS V14.00,2013-09-02 21:58:00,
2013-09-02 18:03:00,85.7,68.1,29.84,ESE,103,0.0,1.4,56,0.00,,SCT300,0.00,VWS V14.00,2013-09-02 22:03:00,
2013-09-02 18:08:00,85.7,68.4,29.84,ENE,75,0.0,0.0,56,0.00,,SCT300,0.00,VWS V14.00,2013-09-02 22:08:00,
2013-09-02 18:13:00,85.5,68.8,29.84,ESE,104,0.0,0.7,57,0.00,,SCT300,0.00,VWS V14.00,2013-09-02 22:13:00,
2013-09-02 18:18:00,85.2,68.5,29.84,ESE,104,0.0,0.7,57,0.00,,SCT300,0.00,VWS V14.00,2013-09-02 22:18:00,
2013-09-02 18:24:00,85.3,69.5,29.84,ESE,104,0.0,0.7,59,0.00,,SCT300,0.00,VWS V14.00,2013-09-02 22:24:00,
2013-09-02 18:29:00,85.2,69.4,29.85,ESE,104,0.0,0.7,59,0.00,,SCT300,0.00,VWS V14.00,2013-09-02 22:29:00,
2013-09-02 18:34:00,85.1,69.8,29.84,ESE,104,0.0,0.7,60,0.00,,SCT300,0.00,VWS V14.00,2013-09-02 22:34:00,
2013-09-02 18:39:00,85.1,70.1,29.84,ESE,104,0.0,0.0,61,0.00,,SCT300,0.00,VWS V14.00,2013-09-02 22:39:00,
2013-09-02 18:44:00,84.9,70.3,29.84,ESE,104,0.0,0.0,62,0.00,,SCT300,0.00,VWS V14.00,2013-09-02 22:44:00,
2013-09-02 18:49:00,84.8,70.6,29.85,ESE,104,0.0,0.0,62,0.00,,SCT300,0.00,VWS V14.00,2013-09-02 22:49:00,
2013-09-02 18:54:00,84.4,70.6,29.84,ESE,104,0.0,0.0,63,0.00,,SCT300,0.00,VWS V14.00,2013-09-02 22:54:00,
2013-09-02 18:59:00,84.3,71.2,29.84,ESE,104,0.0,0.0,65,0.00,,SCT300,0.00,VWS V14.00,2013-09-02 22:59:00,
2013-09-02 19:04:00,83.9,71.4,29.84,ESE,104,0.0,0.0,66,0.00,,SCT300,0.00,VWS V14.00,2013-09-02 23:04:00,
2013-09-02 19:09:00,83.5,71.1,29.85,ESE,104,0.0,0.0,66,0.00,,SCT300,0.00,VWS V14.00,2013-09-02 23:09:00,
2013-09-02 19:14:00,83.4,71.3,29.84,ESE,104,0.0,0.0,67,0.00,,SCT300,0.00,VWS V14.00,2013-09-02 23:14:00,
2013-09-02 19:19:00,83.1,71.5,29.84,ESE,104,0.0,0.0,68,0.00,,SCT300,0.00,VWS V14.00,2013-09-02 23:19:00,
2013-09-02 19:24:00,82.7,71.5,29.84,ESE,104,0.0,0.0,69,0.00,,SCT300,0.00,VWS V14.00,2013-09-02 23:24:00,
2013-09-02 19:29:00,82.3,71.6,29.84,ESE,104,0.0,0.0,70,0.00,,SCT300,0.00,VWS V14.00,2013-09-02 23:29:00,
2013-09-02 19:34:00,82.0,71.6,29.84,ESE,104,0.0,0.0,71,0.00,,SCT300,0.00,VWS V14.00,2013-09-02 23:34:00,
2013-09-02 19:39:00,81.7,71.8,29.84,ESE,104,0.0,0.0,72,0.00,,SCT300,0.00,VWS V14.00,2013-09-02 23:39:00,
2013-09-02 19:44:00,81.5,72.1,29.84,ESE,104,0.0,0.0,73,0.00,,SCT300,0.00,VWS V14.00,2013-09-02 23:44:00,
2013-09-02 19:49:00,81.1,71.9,29.84,ESE,104,0.0,0.0,74,0.00,,SCT300,0.00,VWS V14.00,2013-09-02 23:49:00,
2013-09-02 19:54:00,80.8,71.9,29.84,ESE,104,0.0,0.0,74,0.00,,SCT300,0.00,VWS V14.00,2013-09-02 23:54:00,
2013-09-02 19:59:00,80.4,71.9,29.84,ESE,104,0.0,0.0,75,0.00,,SCT300,0.00,VWS V14.00,2013-09-02 23:59:00,
2013-09-02 20:04:00,80.4,72.2,29.84,ESE,104,0.0,0.0,76,0.00,,SCT300,0.00,VWS V14.00,2013-09-03 00:04:00,
2013-09-02 20:09:00,80.2,72.3,29.84,ESE,104,0.0,0.0,77,0.00,,SCT300,0.00,VWS V14.00,2013-09-03 00:09:00,
2013-09-02 20:15:00,80.0,72.4,29.85,ESE,104,0.0,0.0,78,0.00,,SCT300,0.00,VWS V14.00,2013-09-03 00:15:00,
2013-09-02 20:20:00,79.8,72.4,29.85,ESE,104,0.0,0.0,78,0.00,,SCT300,0.00,VWS V14.00,2013-09-03 00:20:00,
2013-09-02 20:25:00,79.5,72.5,29.85,ESE,104,0.0,0.0,79,0.00,,SCT300,0.00,VWS V14.00,2013-09-03 00:25:00,
2013-09-02 20:30:00,79.3,72.5,29.86,ESE,104,0.0,0.0,80,0.00,,SCT300,0.00,VWS V14.00,2013-09-03 00:30:00,
2013-09-02 20:35:00,79.1,72.7,29.86,ESE,104,0.0,0.0,81,0.00,,SCT300,0.00,VWS V14.00,2013-09-03 00:35:00,
2013-09-02 20:40:00,78.9,72.9,29.86,ESE,104,0.0,0.0,82,0.00,,SCT300,0.00,VWS V14.00,2013-09-03 00:40:00,
2013-09-02 20:45:00,78.7,73.0,29.86,ESE,104,0.0,0.0,83,0.00,,SCT300,0.00,VWS V14.00,2013-09-03 00:45:00,
2013-09-02 20:50:00,78.4,73.0,29.86,ESE,104,0.0,0.0,83,0.00,,SCT300,0.00,VWS V14.00,2013-09-03 00:50:00,
2013-09-02 20:55:00,78.2,73.1,29.86,ESE,104,0.0,0.0,84,0.00,,SCT300,0.00,VWS V14.00,2013-09-03 00:55:00,
2013-09-02 21:00:00,78.1,73.3,29.86,ESE,104,0.0,0.0,85,0.00,,SCT300,0.00,VWS V14.00,2013-09-03 01:00:00,
2013-09-02 21:05:00,77.8,73.3,29.85,ESE,104,0.0,0.0,86,0.00,,SCT300,0.00,VWS V14.00,2013-09-03 01:05:00,
2013-09-02 21:10:00,77.7,73.5,29.85,ESE,104,0.0,0.0,87,0.00,,SCT300,0.00,VWS V14.00,2013-09-03 01:10:00,
2013-09-02 21:15:00,77.5,73.6,29.86,ESE,104,0.0,0.0,88,0.00,,SCT300,0.00,VWS V14.00,2013-09-03 01:15:00,
2013-09-02 21:20:00,77.3,73.7,29.86,ESE,104,0.0,0.0,89,0.00,,SCT300,0.00,VWS V14.00,2013-09-03 01:20:00,
2013-09-02 21:25:00,77.2,73.9,29.85,ESE,104,0.0,0.0,90,0.00,,SCT300,0.00,VWS V14.00,2013-09-03 01:25:00,
2013-09-02 21:30:00,77.2,74.1,29.86,ESE,104,0.0,0.0,90,0.00,,SCT300,0.00,VWS V14.00,2013-09-03 01:30:00,
2013-09-02 21:35:00,77.0,74.1,29.86,ESE,104,0.0,0.0,91,0.00,,SCT300,0.00,VWS V14.00,2013-09-03 01:35:00,
2013-09-02 21:40:00,77.0,74.4,29.86,ESE,104,0.0,0.0,92,0.00,,SCT300,0.00,VWS V14.00,2013-09-03 01:40:00,
2013-09-02 21:45:00,77.0,74.5,29.86,ESE,104,0.0,0.0,92,0.00,,SCT300,0.00,VWS V14.00,2013-09-03 01:45:00,
2013-09-02 21:50:00,76.7,74.2,29.86,ESE,104,0.0,0.0,92,0.00,,SCT300,0.00,VWS V14.00,2013-09-03 01:50:00,
2013-09-02 21:55:00,76.7,74.0,29.86,ESE,104,0.0,0.0,92,0.00,,SCT300,0.00,VWS V14.00,2013-09-03 01:55:00,
2013-09-02 22:00:00,76.6,73.7,29.86,ESE,104,0.0,0.0,91,0.00,,SCT300,0.00,VWS V14.00,2013-09-03 02:00:00,
2013-09-02 22:06:00,76.5,73.6,29.86,ESE,104,0.0,0.0,91,0.00,,SCT300,0.00,VWS V14.00,2013-09-03 02:06:00,
2013-09-02 22:11:00,76.6,73.7,29.86,ESE,104,0.0,0.0,91,0.00,,SCT300,0.00,VWS V14.00,2013-09-03 02:11:00,
2013-09-02 22:16:00,76.4,73.6,29.86,ESE,104,0.0,0.0,91,0.00,,SCT300,0.00,VWS V14.00,2013-09-03 02:16:00,
2013-09-02 22:21:00,76.4,73.6,29.86,ESE,104,0.0,0.0,91,0.00,,SCT300,0.00,VWS V14.00,2013-09-03 02:21:00,
2013-09-02 22:26:00,76.4,73.6,29.86,ESE,104,0.0,0.0,91,0.00,,SCT300,0.00,VWS V14.00,2013-09-03 02:26:00,
2013-09-02 22:31:00,76.2,73.5,29.86,ESE,104,0.0,0.0,91,0.00,,SCT300,0.00,VWS V14.00,2013-09-03 02:31:00,
2013-09-02 22:36:00,76.2,73.7,29.86,ESE,104,0.0,0.0,92,0.00,,SCT300,0.00,VWS V14.00,2013-09-03 02:36:00,
2013-09-02 22:41:00,76.2,73.8,29.86,ESE,104,0.0,0.0,92,0.00,,SCT300,0.00,VWS V14.00,2013-09-03 02:41:00,
2013-09-02 22:46:00,76.0,74.1,29.86,ESE,104,0.0,0.0,94,0.00,,SCT300,0.00,VWS V14.00,2013-09-03 02:46:00,
2013-09-02 22:51:00,75.9,74.3,29.86,ESE,104,0.0,0.0,95,0.00,,SCT300,0.00,VWS V14.00,2013-09-03 02:51:00,
2013-09-02 22:56:00,75.9,74.5,29.86,ESE,104,0.0,0.0,95,0.00,,SCT300,0.00,VWS V14.00,2013-09-03 02:56:00,
2013-09-02 23:01:00,75.7,74.8,29.86,ESE,104,0.0,0.0,97,0.00,,SCT300,0.00,VWS V14.00,2013-09-03 03:01:00,
2013-09-02 23:06:00,75.7,75.2,29.86,ESE,104,0.0,0.0,98,0.00,,SCT300,0.00,VWS V14.00,2013-09-03 03:06:00,
2013-09-02 23:11:00,75.5,75.2,29.86,ESE,104,0.0,0.0,99,0.00,,SCT300,0.00,VWS V14.00,2013-09-03 03:11:00,
2013-09-02 23:16:00,75.4,75.4,29.86,ESE,104,0.0,0.0,100,0.00,,SCT300,0.00,VWS V14.00,2013-09-03 03:16:00,
2013-09-02 23:21:00,75.3,75.3,29.86,ESE,104,0.0,0.0,100,0.00,,SCT300,0.00,VWS V14.00,2013-09-03 03:21:00,
2013-09-02 23:26:00,75.2,75.2,29.86,ESE,104,0.0,0.0,100,0.00,,SCT300,0.00,VWS V14.00,2013-09-03 03:26:00,
2013-09-02 23:31:00,75.1,75.1,29.86,ESE,104,0.0,0.0,100,0.00,,SCT300,0.00,VWS V14.00,2013-09-03 03:31:00,